Time;durP1;ratioP1;P1;durP2;ratioP2;P2;SDS_P1;SDS_P2;PMS_P1;PMS_P2;Temp;Humidity;BMP_temperature;BMP_pressure;BME280_temperature;BME280_humidity;BME280_pressure;Samples;Min_cycle;Max_cycle;Signal;HPM_P1;HPM_P2
2022/09/13 00:01:45;;;;;;;5.75;2.28;;;17.30;99.90;;;;;;5037334;28;20476;-75
2022/09/13 00:04:11;;;;;;;4.88;1.50;;;17.40;99.90;;;;;;5031085;28;20112;-75
2022/09/13 00:06:36;;;;;;;4.82;1.70;;;17.40;99.90;;;;;;5031134;28;20026;-75
2022/09/13 00:09:02;;;;;;;3.10;1.67;;;17.30;99.90;;;;;;5038658;28;20167;-76
2022/09/13 00:11:30;;;;;;;3.40;1.95;;;17.30;99.90;;;;;;5038921;28;20056;-75
2022/09/13 00:13:56;;;;;;;4.82;1.63;;;17.30;99.90;;;;;;5033501;28;20032;-75
2022/09/13 00:16:26;;;;;;;3.88;2.05;;;17.30;99.90;;;;;;5032149;28;20067;-75
2022/09/13 00:18:53;;;;;;;4.45;1.63;;;17.40;99.90;;;;;;5036769;28;20098;-75
2022/09/13 00:21:20;;;;;;;6.55;1.75;;;17.30;99.90;;;;;;5033322;28;20029;-75
2022/09/13 00:23:49;;;;;;;3.97;1.50;;;17.10;99.90;;;;;;5028796;28;20403;-75
2022/09/13 00:26:17;;;;;;;4.88;1.60;;;17.00;99.90;;;;;;5035200;28;20101;-75
2022/09/13 00:28:44;;;;;;;3.03;1.63;;;17.00;99.90;;;;;;5038025;28;20120;-75
2022/09/13 00:31:10;;;;;;;4.70;1.80;;;17.00;99.90;;;;;;5029908;28;20033;-75
2022/09/13 00:33:36;;;;;;;5.50;1.75;;;16.80;99.90;;;;;;5030626;28;20079;-75
2022/09/13 00:36:09;;;;;;;3.92;1.98;;;16.80;99.90;;;;;;5034189;28;20026;-75
2022/09/13 00:38:37;;;;;;;4.07;2.30;;;16.80;99.90;;;;;;5029905;28;20053;-75
2022/09/13 00:41:05;;;;;;;2.83;1.75;;;16.90;99.90;;;;;;5030866;28;20518;-75
2022/09/13 00:43:54;;;;;;;3.72;2.17;;;17.00;99.90;;;;;;5029038;28;20051;-75
2022/09/13 00:46:25;;;;;;;5.90;1.98;;;16.90;99.90;;;;;;5031859;28;20021;-75
2022/09/13 00:48:55;;;;;;;3.28;1.83;;;16.60;99.90;;;;;;5037443;28;20395;-75
2022/09/13 00:51:21;;;;;;;4.68;1.73;;;16.50;99.90;;;;;;5041380;28;20128;-75
2022/09/13 00:53:52;;;;;;;4.90;1.88;;;16.50;99.90;;;;;;5029708;28;20116;-75
2022/09/13 00:56:28;;;;;;;3.67;1.90;;;16.50;99.90;;;;;;5033065;28;20021;-75
2022/09/13 00:59:01;;;;;;;3.00;1.50;;;16.50;99.90;;;;;;5029682;28;20068;-75
2022/09/13 01:01:37;;;;;;;3.10;1.80;;;16.50;99.90;;;;;;5036079;28;20037;-75
2022/09/13 01:04:04;;;;;;;4.65;1.65;;;16.50;99.90;;;;;;5031071;28;20080;-76
2022/09/13 01:06:34;;;;;;;3.83;2.03;;;16.50;99.90;;;;;;5045510;28;20431;-75
2022/09/13 01:09:04;;;;;;;6.55;2.17;;;16.50;99.90;;;;;;5047280;28;20034;-75
2022/09/13 01:11:46;;;;;;;5.43;2.00;;;16.60;99.90;;;;;;5034130;28;20040;-75
2022/09/13 01:14:12;;;;;;;6.32;2.42;;;16.60;99.90;;;;;;5034731;28;20021;-76
2022/09/13 01:16:38;;;;;;;3.30;1.80;;;16.60;99.90;;;;;;5033766;28;20034;-76
2022/09/13 01:19:04;;;;;;;5.35;1.58;;;16.60;99.90;;;;;;5047440;28;20040;-76
2022/09/13 01:21:57;;;;;;;6.40;2.00;;;16.60;99.90;;;;;;5033859;28;20037;-74
2022/09/13 01:24:25;;;;;;;2.60;1.58;;;16.50;99.90;;;;;;5033366;28;20029;-75
2022/09/13 01:27:00;;;;;;;6.20;2.13;;;16.60;99.90;;;;;;5035913;28;20109;-76
2022/09/13 01:30:19;;;;;;;3.60;1.77;;;16.80;99.90;;;;;;5033652;28;20116;-75
2022/09/13 01:33:24;;;;;;;3.60;2.13;;;17.00;99.90;;;;;;5034573;28;20091;-75
2022/09/13 01:35:55;;;;;;;7.82;2.25;;;17.00;99.90;;;;;;5032958;28;20037;-75
2022/09/13 01:38:36;;;;;;;4.53;1.65;;;17.00;99.90;;;;;;5036250;28;20034;-76
2022/09/13 01:41:07;;;;;;;5.88;1.88;;;17.00;99.90;;;;;;5047006;28;20025;-75
2022/09/13 01:44:04;;;;;;;3.15;1.63;;;17.10;99.90;;;;;;5032852;28;20080;-75
2022/09/13 01:46:56;;;;;;;3.83;1.65;;;17.10;99.90;;;;;;5032694;28;20032;-76
2022/09/13 01:49:42;;;;;;;5.13;1.98;;;17.10;99.90;;;;;;5032835;28;20049;-76
2022/09/13 01:52:19;;;;;;;3.38;2.05;;;17.10;99.90;;;;;;5038910;28;20116;-76
2022/09/13 01:55:22;;;;;;;14.52;2.42;;;17.20;99.90;;;;;;5033704;28;20123;-76
2022/09/13 01:58:10;;;;;;;4.10;1.90;;;17.30;99.90;;;;;;5032574;28;20022;-76
2022/09/13 02:00:50;;;;;;;3.05;1.70;;;17.40;99.90;;;;;;5035182;28;20026;-75
2022/09/13 02:03:32;;;;;;;3.97;1.60;;;17.50;99.90;;;;;;5059109;28;20040;-75
2022/09/13 02:06:08;;;;;;;4.85;1.60;;;17.50;99.90;;;;;;5037268;28;20443;-76
2022/09/13 02:08:41;;;;;;;4.78;2.17;;;17.50;99.90;;;;;;5032722;28;20109;-77
2022/09/13 02:11:13;;;;;;;4.10;1.67;;;17.60;99.90;;;;;;5037129;28;20167;-76
2022/09/13 02:13:48;;;;;;;3.58;1.65;;;17.60;99.90;;;;;;5033181;28;20041;-76
2022/09/13 02:16:32;;;;;;;2.85;1.60;;;17.60;99.90;;;;;;5044672;28;20036;-76
2022/09/13 02:19:05;;;;;;;4.57;1.65;;;17.60;99.90;;;;;;5040515;28;20124;-76
2022/09/13 02:21:37;;;;;;;4.15;1.55;;;17.60;99.90;;;;;;5040134;28;20576;-75
2022/09/13 02:24:06;;;;;;;3.30;1.70;;;17.60;99.90;;;;;;5036382;28;20044;-75
2022/09/13 02:26:36;;;;;;;7.18;1.75;;;17.60;99.90;;;;;;5035843;28;20029;-76
2022/09/13 02:29:09;;;;;;;2.65;1.40;;;17.60;99.90;;;;;;5032069;28;20041;-76
2022/09/13 02:31:43;;;;;;;3.50;1.90;;;17.70;99.90;;;;;;5034312;28;20026;-75
2022/09/13 02:34:21;;;;;;;3.88;2.00;;;17.80;99.90;;;;;;5034332;28;20041;-76
2022/09/13 02:36:49;;;;;;;3.53;1.80;;;17.70;99.90;;;;;;5034212;28;20052;-75
2022/09/13 02:39:21;;;;;;;3.65;1.65;;;17.70;99.90;;;;;;5032167;28;20411;-76
2022/09/13 02:42:03;;;;;;;2.58;1.50;;;17.70;99.90;;;;;;5049885;28;20032;-75
2022/09/13 02:44:39;;;;;;;3.17;1.40;;;17.60;99.90;;;;;;5031631;28;20037;-76
2022/09/13 02:47:13;;;;;;;3.40;1.48;;;17.60;99.90;;;;;;5032657;28;20383;-75
2022/09/13 02:49:54;;;;;;;3.25;1.60;;;17.50;99.90;;;;;;5033395;28;20112;-76
2022/09/13 02:52:29;;;;;;;5.93;1.63;;;17.50;99.90;;;;;;5033666;28;20063;-75
2022/09/13 02:55:08;;;;;;;3.53;1.42;;;17.40;99.90;;;;;;5038089;28;20051;-77
2022/09/13 02:57:53;;;;;;;3.33;1.83;;;17.50;99.90;;;;;;5031371;28;20029;-75
2022/09/13 03:00:20;;;;;;;2.50;1.42;;;17.50;99.90;;;;;;5047434;28;20037;-75
2022/09/13 03:02:47;;;;;;;3.58;1.85;;;17.40;99.90;;;;;;5045650;28;20039;-75
2022/09/13 03:05:13;;;;;;;4.30;1.48;;;17.40;99.90;;;;;;5028263;28;20032;-75
2022/09/13 03:07:39;;;;;;;2.45;1.38;;;17.40;99.90;;;;;;5026937;28;20392;-75
2022/09/13 03:10:10;;;;;;;3.03;1.70;;;17.40;99.90;;;;;;5032754;28;20029;-76
2022/09/13 03:13:40;;;;;;;2.55;1.30;;;17.40;99.90;;;;;;5035682;28;20049;-75
2022/09/13 03:16:26;;;;;;;4.13;1.65;;;17.40;99.90;;;;;;4961894;28;20038;-75
2022/09/13 03:19:22;;;;;;;2.83;1.40;;;17.40;99.90;;;;;;5022315;28;20179;-75
2022/09/13 03:22:07;;;;;;;3.45;1.60;;;17.40;99.90;;;;;;5026018;28;20475;-75
2022/09/13 03:25:00;;;;;;;4.80;1.90;;;17.40;99.90;;;;;;5041576;28;20095;-75
2022/09/13 03:27:32;;;;;;;3.20;1.35;;;17.40;99.90;;;;;;5026518;28;20029;-75
2022/09/13 03:30:05;;;;;;;5.90;1.65;;;17.50;99.90;;;;;;5026581;28;20128;-76
2022/09/13 03:32:56;;;;;;;5.03;1.75;;;17.50;99.90;;;;;;5034538;28;20134;-75
2022/09/13 03:35:40;;;;;;;4.78;1.80;;;17.60;99.90;;;;;;5030216;28;20032;-75
2022/09/13 03:38:24;;;;;;;2.83;1.48;;;17.70;99.90;;;;;;5027266;28;20037;-76
2022/09/13 03:41:08;;;;;;;2.80;1.53;;;17.60;99.90;;;;;;5036986;28;20037;-76
2022/09/13 03:43:43;;;;;;;3.20;1.58;;;17.60;99.90;;;;;;5030851;28;20032;-74
2022/09/13 03:46:29;;;;;;;3.03;1.27;;;17.70;99.90;;;;;;5029980;28;20102;-77
2022/09/13 03:48:59;;;;;;;3.83;1.50;;;17.70;99.90;;;;;;5037749;28;20602;-75
2022/09/13 03:51:26;;;;;;;2.85;1.63;;;17.70;99.90;;;;;;5045105;28;20033;-75
2022/09/13 03:54:03;;;;;;;4.00;2.08;;;17.60;99.90;;;;;;5029045;28;20103;-75
2022/09/13 03:56:29;;;;;;;5.07;1.67;;;17.50;99.90;;;;;;5028510;28;20029;-76
2022/09/13 03:58:55;;;;;;;2.70;1.40;;;17.40;99.90;;;;;;5023895;28;20084;-75
2022/09/13 04:01:22;;;;;;;4.63;1.60;;;17.50;99.90;;;;;;5025021;28;20041;-75
2022/09/13 04:03:49;;;;;;;3.00;1.58;;;17.50;99.90;;;;;;5025223;28;20526;-75
2022/09/13 04:06:15;;;;;;;2.90;1.80;;;17.50;99.90;;;;;;5025661;28;20033;-76
2022/09/13 04:08:41;;;;;;;4.90;1.85;;;17.40;99.90;;;;;;5036899;28;20367;-75
2022/09/13 04:11:08;;;;;;;3.25;2.08;;;17.40;99.90;;;;;;5038441;28;20086;-75
2022/09/13 04:13:35;;;;;;;3.17;1.80;;;17.40;99.90;;;;;;5031671;28;20036;-75
2022/09/13 04:16:02;;;;;;;2.72;1.63;;;17.40;99.90;;;;;;5031921;28;20041;-77
2022/09/13 04:18:28;;;;;;;2.38;1.25;;;17.30;99.90;;;;;;5031965;28;20092;-76
2022/09/13 04:20:58;;;;;;;2.83;1.50;;;17.40;99.90;;;;;;5026598;28;20120;-75
2022/09/13 04:23:26;;;;;;;2.83;1.80;;;17.60;99.90;;;;;;5022752;28;20021;-76
2022/09/13 04:25:52;;;;;;;4.32;1.50;;;17.60;99.90;;;;;;5026828;28;20035;-75
2022/09/13 04:28:18;;;;;;;4.20;1.77;;;17.60;99.90;;;;;;5025267;28;20044;-75
2022/09/13 04:30:45;;;;;;;2.75;1.60;;;17.60;99.90;;;;;;5022410;28;20038;-76
2022/09/13 04:33:11;;;;;;;3.50;1.65;;;17.50;99.90;;;;;;5022854;28;20063;-76
2022/09/13 04:35:38;;;;;;;4.00;2.05;;;17.50;99.90;;;;;;5025334;28;20032;-75
2022/09/13 04:38:04;;;;;;;2.88;1.50;;;17.40;99.90;;;;;;5022920;28;20521;-76
2022/09/13 04:40:30;;;;;;;4.57;2.00;;;17.30;99.90;;;;;;5024420;28;20507;-75
2022/09/13 04:42:55;;;;;;;3.30;1.45;;;17.40;99.90;;;;;;5034193;28;20037;-76
2022/09/13 04:45:21;;;;;;;5.25;1.83;;;17.50;99.90;;;;;;5035106;28;20059;-75
2022/09/13 04:47:55;;;;;;;3.80;1.50;;;17.50;99.90;;;;;;5023644;28;20037;-76
2022/09/13 04:50:21;;;;;;;6.50;2.05;;;17.40;99.90;;;;;;5024899;28;20468;-75
2022/09/13 04:52:47;;;;;;;3.05;1.88;;;17.50;99.90;;;;;;5031881;28;20029;-75
2022/09/13 04:55:13;;;;;;;3.67;1.90;;;17.60;99.90;;;;;;5030627;28;20040;-75
2022/09/13 04:57:40;;;;;;;5.70;1.88;;;17.50;99.90;;;;;;5028807;28;20033;-75
2022/09/13 05:00:06;;;;;;;3.90;1.45;;;17.50;99.90;;;;;;5026365;28;20064;-77
2022/09/13 05:02:32;;;;;;;3.28;1.67;;;17.50;99.90;;;;;;5025349;28;20692;-75
2022/09/13 05:04:58;;;;;;;4.88;1.70;;;17.50;99.90;;;;;;5022918;28;20034;-75
2022/09/13 05:07:23;;;;;;;5.18;1.70;;;17.50;99.90;;;;;;5026231;28;20376;-75
2022/09/13 05:09:49;;;;;;;6.00;1.58;;;17.50;99.90;;;;;;5032960;28;20029;-76
2022/09/13 05:12:15;;;;;;;2.90;1.50;;;17.60;99.90;;;;;;5029908;28;20050;-76
2022/09/13 05:14:40;;;;;;;4.50;1.20;;;17.70;99.90;;;;;;5029314;28;20025;-75
2022/09/13 05:17:06;;;;;;;3.00;1.40;;;17.60;99.90;;;;;;5027101;28;20048;-75
2022/09/13 05:19:32;;;;;;;2.25;1.25;;;17.60;99.90;;;;;;5037078;28;20038;-77
2022/09/13 05:21:57;;;;;;;4.47;1.67;;;17.60;99.90;;;;;;5023926;28;20033;-75
2022/09/13 05:24:23;;;;;;;3.58;1.58;;;17.60;99.90;;;;;;5041570;28;20399;-76
2022/09/13 05:26:49;;;;;;;3.47;1.20;;;17.70;99.90;;;;;;5027614;28;20087;-74
2022/09/13 05:29:14;;;;;;;2.70;1.30;;;17.70;99.90;;;;;;5024612;28;20091;-77
2022/09/13 05:31:41;;;;;;;3.38;1.45;;;17.60;99.90;;;;;;5037269;28;20021;-77
2022/09/13 05:34:13;;;;;;;6.85;1.60;;;17.70;99.90;;;;;;5041317;28;20043;-77
2022/09/13 05:36:39;;;;;;;5.53;1.52;;;17.70;99.90;;;;;;5025389;28;20037;-76
2022/09/13 05:39:06;;;;;;;3.35;1.45;;;17.70;99.90;;;;;;5022590;28;20388;-74
2022/09/13 05:41:32;;;;;;;2.78;1.17;;;17.70;99.90;;;;;;5022437;28;20025;-77
2022/09/13 05:43:58;;;;;;;4.32;1.90;;;17.60;99.90;;;;;;5021818;28;20033;-74
2022/09/13 05:46:23;;;;;;;4.63;1.55;;;17.70;99.90;;;;;;5021529;28;20025;-75
2022/09/13 05:48:49;;;;;;;5.70;1.73;;;17.70;99.90;;;;;;5022567;28;20534;-75
2022/09/13 05:51:20;;;;;;;2.50;1.35;;;17.80;99.90;;;;;;5025504;28;20112;-74
2022/09/13 05:53:49;;;;;;;4.68;1.45;;;17.70;99.90;;;;;;5029082;28;20029;-75
2022/09/13 05:56:20;;;;;;;3.10;1.30;;;17.70;99.90;;;;;;5036929;28;20025;-71
2022/09/13 05:58:47;;;;;;;4.78;1.70;;;17.70;99.90;;;;;;5027126;28;20128;-75
2022/09/13 06:01:15;;;;;;;4.80;1.55;;;17.80;99.90;;;;;;5025526;28;20463;-75
2022/09/13 06:03:41;;;;;;;4.40;1.20;;;17.80;99.90;;;;;;5026678;28;20022;-74
2022/09/13 06:06:08;;;;;;;4.20;1.73;;;17.80;99.90;;;;;;5038624;28;20535;-74
2022/09/13 06:08:34;;;;;;;2.03;1.13;;;17.80;99.90;;;;;;5033206;28;20084;-74
2022/09/13 06:11:06;;;;;;;7.07;1.90;;;17.70;99.90;;;;;;5025624;28;20029;-74
2022/09/13 06:13:33;;;;;;;3.75;1.20;;;17.80;99.90;;;;;;5030667;28;20049;-74
2022/09/13 06:16:01;;;;;;;2.67;1.30;;;17.70;99.90;;;;;;5027237;28;20132;-75
2022/09/13 06:18:27;;;;;;;2.90;1.60;;;17.80;99.90;;;;;;5025227;28;20041;-75
2022/09/13 06:21:05;;;;;;;3.63;1.33;;;17.80;99.90;;;;;;5032514;28;20087;-75
2022/09/13 06:23:30;;;;;;;3.60;1.83;;;17.70;99.90;;;;;;5033362;28;20032;-74
2022/09/13 06:26:05;;;;;;;3.38;1.20;;;17.60;99.90;;;;;;5025387;28;20040;-74
2022/09/13 06:28:31;;;;;;;3.72;1.52;;;17.60;99.90;;;;;;5027135;28;20042;-75
2022/09/13 06:31:08;;;;;;;4.30;1.35;;;17.60;99.90;;;;;;5039596;28;20540;-74
2022/09/13 06:33:35;;;;;;;4.32;1.52;;;17.50;99.90;;;;;;5028075;28;20034;-75
2022/09/13 06:36:03;;;;;;;7.20;1.48;;;17.50;99.90;;;;;;5042882;28;20057;-75
2022/09/13 06:38:29;;;;;;;6.00;1.67;;;17.50;99.90;;;;;;5024546;28;20037;-75
2022/09/13 06:41:07;;;;;;;3.45;1.40;;;17.50;99.90;;;;;;5024068;28;20039;-75
2022/09/13 06:43:34;;;;;;;2.70;1.50;;;17.50;99.90;;;;;;5026629;28;20060;-75
2022/09/13 06:46:01;;;;;;;4.03;1.33;;;17.60;99.90;;;;;;5039267;28;20037;-75
2022/09/13 06:48:30;;;;;;;2.50;1.30;;;17.60;99.90;;;;;;5028158;28;20060;-75
2022/09/13 06:51:00;;;;;;;3.63;1.30;;;17.60;99.90;;;;;;5031857;28;20044;-74
2022/09/13 06:53:27;;;;;;;2.95;1.40;;;17.60;99.90;;;;;;5024475;28;20120;-76
2022/09/13 06:56:05;;;;;;;3.20;1.45;;;17.70;99.90;;;;;;5024952;28;20083;-75
2022/09/13 06:58:33;;;;;;;3.90;1.48;;;17.60;99.90;;;;;;5027356;28;20044;-75
2022/09/13 07:01:19;;;;;;;2.78;1.25;;;18.50;99.90;;;;;;5027751;28;20089;-76
2022/09/13 07:04:12;;;;;;;3.95;1.33;;;20.50;98.70;;;;;;5026907;28;20026;-76
2022/09/13 07:06:43;;;;;;;4.20;1.25;;;21.80;96.70;;;;;;5029166;28;20545;-76
2022/09/13 07:09:14;;;;;;;4.75;1.48;;;23.20;94.80;;;;;;5027424;28;20037;-76
2022/09/13 07:11:41;;;;;;;4.05;1.60;;;22.70;95.20;;;;;;5027583;28;20049;-75
2022/09/13 07:14:07;;;;;;;4.45;1.52;;;20.80;97.10;;;;;;5027915;28;20553;-75
2022/09/13 07:16:35;;;;;;;2.92;1.52;;;19.20;99.00;;;;;;5047554;28;20025;-75
2022/09/13 07:19:04;;;;;;;3.15;1.70;;;18.40;99.90;;;;;;5028679;28;20484;-75
2022/09/13 07:21:31;;;;;;;5.35;1.45;;;18.10;99.90;;;;;;5027589;28;20036;-75
2022/09/13 07:23:57;;;;;;;3.65;1.95;;;18.10;99.90;;;;;;5027680;28;20068;-75
2022/09/13 07:26:26;;;;;;;4.90;1.77;;;18.20;99.90;;;;;;5033726;28;20029;-75
2022/09/13 07:28:54;;;;;;;2.85;1.38;;;18.20;99.90;;;;;;5028162;28;20044;-75
2022/09/13 07:31:21;;;;;;;3.47;1.60;;;18.20;99.90;;;;;;5030033;28;20025;-75
2022/09/13 07:33:52;;;;;;;3.83;1.45;;;18.30;99.90;;;;;;5027333;28;20025;-75
2022/09/13 07:36:17;;;;;;;4.40;1.45;;;18.30;99.90;;;;;;5029946;28;20022;-75
2022/09/13 07:38:44;;;;;;;3.35;1.67;;;18.40;99.90;;;;;;5026179;28;20037;-75
2022/09/13 07:41:18;;;;;;;3.97;1.30;;;18.50;99.90;;;;;;5033610;28;20059;-75
2022/09/13 07:43:44;;;;;;;4.63;1.70;;;18.60;99.90;;;;;;5026842;28;20057;-75
2022/09/13 07:46:12;;;;;;;2.45;1.40;;;18.60;99.90;;;;;;5026111;28;20109;-76
2022/09/13 07:48:40;;;;;;;4.55;1.63;;;18.70;99.90;;;;;;5030443;28;20049;-75
2022/09/13 07:51:14;;;;;;;4.57;2.00;;;18.70;99.90;;;;;;5026269;28;20029;-75
2022/09/13 07:53:41;;;;;;;5.22;1.40;;;18.70;99.90;;;;;;5026329;28;20056;-75
2022/09/13 07:56:13;;;;;;;7.43;1.52;;;18.70;99.90;;;;;;5026553;28;20590;-75
2022/09/13 07:58:41;;;;;;;3.40;1.50;;;18.60;99.90;;;;;;5026470;28;20049;-75
2022/09/13 08:01:11;;;;;;;3.58;1.42;;;18.60;99.90;;;;;;5026110;28;20029;-75
2022/09/13 08:03:37;;;;;;;4.13;1.25;;;18.80;99.90;;;;;;5026136;28;20037;-75
2022/09/13 08:06:04;;;;;;;2.33;1.30;;;18.90;99.90;;;;;;5030449;28;20034;-75
2022/09/13 08:08:30;;;;;;;2.40;1.30;;;18.80;99.90;;;;;;5030094;28;20024;-75
2022/09/13 08:10:56;;;;;;;3.78;1.40;;;18.90;99.90;;;;;;5026114;28;20476;-74
2022/09/13 08:13:22;;;;;;;3.95;1.23;;;19.00;99.90;;;;;;5026786;28;20077;-75
2022/09/13 08:15:48;;;;;;;3.67;1.25;;;18.90;99.90;;;;;;5029798;28;20495;-75
2022/09/13 08:18:15;;;;;;;4.78;1.60;;;18.90;99.90;;;;;;5032135;28;20033;-75
2022/09/13 08:20:41;;;;;;;3.80;1.50;;;19.00;99.90;;;;;;5034896;28;20025;-75
2022/09/13 08:23:09;;;;;;;3.85;1.20;;;19.00;99.90;;;;;;5029437;28;20035;-75
2022/09/13 08:25:35;;;;;;;4.20;1.55;;;19.00;99.90;;;;;;5027736;28;20497;-75
2022/09/13 08:28:09;;;;;;;7.43;1.52;;;19.10;99.90;;;;;;5033755;28;20550;-75
2022/09/13 08:30:36;;;;;;;3.40;1.30;;;19.10;99.90;;;;;;5026004;28;20025;-75
2022/09/13 08:33:05;;;;;;;3.00;1.48;;;19.20;99.90;;;;;;5027438;28;20124;-75
2022/09/13 08:35:32;;;;;;;3.53;1.38;;;19.20;99.90;;;;;;5027216;28;20037;-75
2022/09/13 08:37:59;;;;;;;2.30;1.30;;;19.40;99.80;;;;;;5028751;28;20057;-75
2022/09/13 08:40:33;;;;;;;3.20;1.40;;;19.50;99.70;;;;;;5035095;28;20037;-75
2022/09/13 08:43:18;;;;;;;;;;;19.50;99.40;;;;;;5033332;28;20028;-75
2022/09/13 08:46:03;;;;;;;4.13;1.38;;;19.60;99.50;;;;;;5027386;28;19984;-74
2022/09/13 08:48:42;;;;;;;2.92;1.40;;;19.70;99.90;;;;;;5025984;28;20111;-75
2022/09/13 08:51:23;;;;;;;2.40;1.27;;;19.70;99.40;;;;;;5030456;28;20029;-74
2022/09/13 08:53:50;;;;;;;5.53;1.50;;;19.80;99.70;;;;;;5045503;28;20062;-74
2022/09/13 08:56:52;;;;;;;3.45;1.70;;;19.80;99.10;;;;;;5035570;28;20032;-74
2022/09/13 08:59:53;;;;;;;3.40;1.42;;;19.90;99.80;;;;;;5028478;28;20045;-75
2022/09/13 09:02:43;;;;;;;2.90;1.40;;;20.00;99.40;;;;;;5032396;28;20162;-75
2022/09/13 09:05:24;;;;;;;2.38;1.23;;;23.00;96.40;;;;;;5030458;28;20039;-74
2022/09/13 09:08:01;;;;;;;2.15;1.15;;;25.90;93.40;;;;;;5033030;28;20056;-75
2022/09/13 09:10:34;;;;;;;2.42;1.10;;;27.20;92.30;;;;;;5029355;28;20029;-75
2022/09/13 09:13:17;;;;;;;2.63;1.13;;;27.50;90.70;;;;;;5027761;28;20045;-75
2022/09/13 09:15:46;;;;;;;4.72;1.35;;;28.50;90.40;;;;;;5025669;28;20046;-75
2022/09/13 09:18:22;;;;;;;5.65;1.38;;;28.10;87.70;;;;;;5027585;28;20384;-75
2022/09/13 09:20:57;;;;;;;3.17;1.48;;;28.20;88.50;;;;;;5029548;28;20040;-75
2022/09/13 09:23:29;;;;;;;2.78;1.30;;;29.00;89.50;;;;;;5043080;28;20029;-75
2022/09/13 09:26:15;;;;;;;2.25;1.13;;;28.10;90.40;;;;;;5042431;28;20565;-75
2022/09/13 09:28:46;;;;;;;2.78;1.27;;;28.10;88.90;;;;;;5029498;28;20018;-75
2022/09/13 09:31:23;;;;;;;6.63;1.55;;;28.20;89.50;;;;;;5047906;28;20052;-75
2022/09/13 09:34:04;;;;;;;2.58;1.30;;;28.90;90.50;;;;;;5029206;28;20108;-75
2022/09/13 09:36:42;;;;;;;3.63;1.20;;;28.70;89.60;;;;;;5029617;28;20361;-75
2022/09/13 09:39:15;;;;;;;3.28;1.33;;;29.20;89.70;;;;;;5028617;28;20079;-75
2022/09/13 09:41:44;;;;;;;5.93;1.60;;;29.00;88.00;;;;;;5032191;28;20033;-75
2022/09/13 09:44:30;;;;;;;3.47;1.20;;;28.70;89.40;;;;;;5028342;28;20115;-75
2022/09/13 09:47:16;;;;;;;4.65;1.35;;;28.60;90.50;;;;;;5031193;28;20021;-75
2022/09/13 09:50:08;;;;;;;2.20;1.20;;;27.50;90.10;;;;;;5031890;28;20137;-74
2022/09/13 09:52:49;;;;;;;3.05;1.30;;;26.90;90.60;;;;;;5031906;28;20029;-74
2022/09/13 09:55:24;;;;;;;5.03;1.30;;;24.90;90.80;;;;;;5027289;28;20109;-75
2022/09/13 09:58:05;;;;;;;3.67;1.50;;;23.60;92.90;;;;;;5028167;28;21090;-74
2022/09/13 10:00:50;;;;;;;3.10;1.15;;;22.70;94.10;;;;;;5037101;28;20135;-75
2022/09/13 10:03:18;;;;;;;5.95;1.20;;;22.20;93.90;;;;;;5045338;28;20368;-74
2022/09/13 10:05:46;;;;;;;3.00;1.38;;;22.10;94.20;;;;;;5031152;28;20044;-75
2022/09/13 10:08:32;;;;;;;2.88;1.40;;;22.10;94.40;;;;;;5029326;28;20083;-74
2022/09/13 10:10:59;;;;;;;3.97;1.35;;;22.20;94.80;;;;;;5029217;28;20099;-74
2022/09/13 10:13:25;;;;;;;6.05;1.55;;;22.40;95.00;;;;;;5027966;28;20056;-75
2022/09/13 10:16:02;;;;;;;2.40;1.10;;;22.50;94.50;;;;;;5028285;28;20036;-74
2022/09/13 10:18:29;;;;;;;2.60;1.42;;;22.50;94.10;;;;;;5028051;28;20033;-74
2022/09/13 10:21:18;;;;;;;5.45;1.70;;;22.70;94.40;;;;;;5029630;28;20025;-75
2022/09/13 10:23:46;;;;;;;3.10;1.38;;;22.40;94.20;;;;;;5028673;28;20044;-75
2022/09/13 10:26:16;;;;;;;4.72;1.88;;;22.50;94.80;;;;;;5028073;28;20384;-75
2022/09/13 10:28:56;;;;;;;2.38;1.25;;;22.80;94.90;;;;;;5027737;28;20049;-75
2022/09/13 10:31:28;;;;;;;3.08;1.70;;;23.10;95.50;;;;;;5027004;28;20057;-74
2022/09/13 10:34:04;;;;;;;3.63;1.50;;;23.40;95.00;;;;;;5028290;28;20017;-75
2022/09/13 10:36:34;;;;;;;2.88;1.45;;;23.30;94.00;;;;;;5026917;28;20069;-75
2022/09/13 10:39:05;;;;;;;4.07;1.48;;;23.40;94.00;;;;;;5036285;28;20037;-75
2022/09/13 10:41:39;;;;;;;3.53;1.40;;;23.40;94.10;;;;;;5047761;28;20514;-75
2022/09/13 10:44:20;;;;;;;1.80;1.02;;;23.50;94.00;;;;;;5044416;28;20048;-75
2022/09/13 10:46:47;;;;;;;5.82;1.95;;;23.70;94.50;;;;;;5025289;28;20025;-75
2022/09/13 10:49:37;;;;;;;4.85;1.65;;;24.00;93.50;;;;;;5024895;28;20075;-75
2022/09/13 10:52:22;;;;;;;5.13;1.60;;;24.00;93.80;;;;;;5025858;28;20097;-75
2022/09/13 10:54:48;;;;;;;4.68;1.73;;;23.90;94.00;;;;;;5027428;28;20036;-75
2022/09/13 10:57:32;;;;;;;3.58;1.38;;;24.00;93.60;;;;;;5030847;28;20030;-75
2022/09/13 10:59:58;;;;;;;4.53;1.20;;;24.30;93.80;;;;;;5027754;28;20075;-75
2022/09/13 11:02:42;;;;;;;3.70;1.60;;;24.20;93.70;;;;;;5035546;28;20471;-75
2022/09/13 11:05:20;;;;;;;2.38;1.17;;;24.20;94.30;;;;;;5033069;28;20032;-74
2022/09/13 11:08:11;;;;;;;4.10;1.73;;;24.70;93.90;;;;;;5026374;28;20159;-75
2022/09/13 11:11:08;;;;;;;3.00;1.50;;;24.60;93.50;;;;;;5029137;28;20028;-75
2022/09/13 11:13:51;;;;;;;7.50;1.88;;;24.60;94.10;;;;;;5027665;28;20396;-74
2022/09/13 11:16:22;;;;;;;4.70;1.50;;;24.80;93.90;;;;;;5027436;28;20029;-75
2022/09/13 11:19:17;;;;;;;3.28;1.60;;;24.70;93.30;;;;;;5028337;28;20061;-74
2022/09/13 11:22:07;;;;;;;5.30;2.00;;;25.00;93.30;;;;;;5027087;28;20037;-74
2022/09/13 11:24:44;;;;;;;3.50;1.70;;;25.00;94.40;;;;;;5040056;28;20043;-73
2022/09/13 11:27:25;;;;;;;6.43;1.50;;;25.20;94.90;;;;;;5028193;28;20442;-73
2022/09/13 11:30:19;;;;;;;2.88;1.58;;;25.00;94.00;;;;;;5032670;28;20068;-73
2022/09/13 11:33:13;;;;;;;3.28;1.63;;;24.90;93.70;;;;;;5026525;28;20112;-74
2022/09/13 11:36:15;;;;;;;3.10;1.50;;;25.00;94.40;;;;;;5024926;28;20572;-73
2022/09/13 11:38:58;;;;;;;2.72;1.20;;;25.20;94.00;;;;;;5030006;28;20045;-73
2022/09/13 11:41:38;;;;;;;4.07;2.20;;;25.20;94.00;;;;;;5029111;28;20105;-73
2022/09/13 11:44:20;;;;;;;3.05;1.85;;;25.20;93.20;;;;;;5025329;28;20363;-74
2022/09/13 11:47:05;;;;;;;3.85;1.63;;;25.20;93.20;;;;;;5023370;28;20120;-73
2022/09/13 11:49:45;;;;;;;5.45;1.38;;;25.00;93.00;;;;;;5024192;28;20029;-74
2022/09/13 11:52:29;;;;;;;4.72;1.90;;;25.20;93.70;;;;;;5030617;28;20116;-73
2022/09/13 11:55:10;;;;;;;4.25;1.70;;;25.00;93.20;;;;;;5029665;28;20426;-73
2022/09/13 11:58:09;;;;;;;3.55;1.77;;;24.80;93.20;;;;;;5023470;28;20380;-74
2022/09/13 12:00:42;;;;;;;7.50;1.73;;;24.90;93.90;;;;;;5029159;28;20143;-74
2022/09/13 12:03:10;;;;;;;3.38;1.52;;;25.10;93.60;;;;;;5024270;28;20487;-74
2022/09/13 12:06:06;;;;;;;2.45;1.30;;;25.20;93.70;;;;;;5024954;28;20090;-73
2022/09/13 12:08:35;;;;;;;8.55;1.80;;;25.40;95.10;;;;;;5028108;28;20048;-73
2022/09/13 12:11:25;;;;;;;2.70;1.40;;;25.40;94.20;;;;;;5023721;28;20068;-73
2022/09/13 12:13:59;;;;;;;7.18;1.50;;;25.50;93.60;;;;;;5022222;28;20749;-73
2022/09/13 12:16:30;;;;;;;3.35;1.60;;;25.60;94.10;;;;;;5024176;28;20052;-73
2022/09/13 12:19:21;;;;;;;3.75;1.30;;;25.90;94.60;;;;;;5028269;28;20617;-73
2022/09/13 12:21:48;;;;;;;3.35;1.65;;;25.90;93.80;;;;;;5022929;28;20048;-73
2022/09/13 12:24:32;;;;;;;4.70;1.60;;;25.90;94.50;;;;;;5033378;28;20096;-73
2022/09/13 12:27:30;;;;;;;2.95;1.42;;;26.00;93.20;;;;;;5023255;28;20523;-73
2022/09/13 12:30:06;;;;;;;3.90;1.77;;;25.80;93.70;;;;;;5022903;28;20026;-73
2022/09/13 12:32:31;;;;;;;2.55;1.50;;;25.90;93.70;;;;;;5038584;28;20028;-73
2022/09/13 12:35:15;;;;;;;2.97;1.63;;;26.10;93.00;;;;;;5031058;28;20509;-74
2022/09/13 12:37:56;;;;;;;3.63;1.42;;;26.10;93.00;;;;;;5032509;28;20402;-73
2022/09/13 12:40:42;;;;;;;2.50;1.45;;;26.30;93.30;;;;;;5023355;28;20056;-74
2022/09/13 12:43:36;;;;;;;2.80;1.58;;;26.40;92.80;;;;;;5023297;28;20022;-73
2022/09/13 12:46:29;;;;;;;5.72;1.70;;;26.60;92.60;;;;;;5024193;28;20089;-73
2022/09/13 12:49:13;;;;;;;5.57;2.13;;;27.00;93.30;;;;;;5028969;28;20030;-72
2022/09/13 12:51:42;;;;;;;3.92;1.33;;;27.00;92.70;;;;;;5024873;28;20669;-72
2022/09/13 12:54:23;;;;;;;4.10;1.67;;;27.20;93.30;;;;;;5027606;28;20034;-72
2022/09/13 12:57:07;;;;;;;3.78;1.80;;;27.10;92.10;;;;;;5029152;28;20021;-72
2022/09/13 12:59:37;;;;;;;;;;;27.20;92.50;;;;;;5026242;28;20124;-72
2022/09/13 13:02:39;;;;;;;11.85;3.58;;;27.20;92.50;;;;;;5032212;28;19909;-73
2022/09/13 13:05:30;;;;;;;4.13;1.40;;;27.20;93.20;;;;;;5029563;28;20033;-72
2022/09/13 13:08:00;;;;;;;2.90;1.42;;;27.10;92.00;;;;;;5029449;28;20651;-72
2022/09/13 13:10:35;;;;;;;5.95;2.03;;;27.10;92.60;;;;;;5030555;28;20040;-72
2022/09/13 13:13:23;;;;;;;4.47;1.33;;;27.10;92.20;;;;;;5039805;28;20054;-72
2022/09/13 13:15:49;;;;;;;6.22;2.00;;;27.30;92.30;;;;;;5029275;28;20036;-73
2022/09/13 13:18:21;;;;;;;5.88;1.85;;;27.40;93.80;;;;;;5030161;28;20383;-73
2022/09/13 13:21:03;;;;;;;4.40;2.30;;;27.40;92.80;;;;;;5031664;28;20029;-73
2022/09/13 13:23:30;;;;;;;5.18;2.28;;;27.30;92.90;;;;;;5028559;28;20022;-73
2022/09/13 13:26:06;;;;;;;6.80;1.65;;;27.50;93.10;;;;;;5028049;28;20037;-72